Time;durP1;ratioP1;P1;durP2;ratioP2;P2;SDS_P1;SDS_P2;PMS_P1;PMS_P2;Temp;Humidity;BMP_temperature;BMP_pressure;BME280_temperature;BME280_humidity;BME280_pressure;Samples;Min_cycle;Max_cycle;Signal;HPM_P1;HPM_P2
2023/06/22 00:00:50;;;;;;;12.30;9.37;;;;;;;22.26;67.00;96237.16;4989745;28;20177;-68
2023/06/22 00:03:17;;;;;;;9.43;8.50;;;;;;;21.91;68.33;96238.56;4989048;28;20463;-68
2023/06/22 00:05:42;;;;;;;10.10;6.33;;;;;;;22.48;65.86;96243.16;4989252;28;20216;-68
2023/06/22 00:08:08;;;;;;;8.27;7.40;;;;;;;22.78;65.09;96236.72;4988925;28;20416;-68
2023/06/22 00:10:33;;;;;;;13.70;8.13;;;;;;;22.81;64.86;96231.91;4989261;28;20177;-68
2023/06/22 00:12:58;;;;;;;12.60;11.27;;;;;;;22.61;65.68;96239.16;4989668;28;20750;-68
2023/06/22 00:15:24;;;;;;;12.47;11.17;;;;;;;22.21;66.97;96233.22;4989251;28;20175;-68
2023/06/22 00:17:50;;;;;;;10.90;9.33;;;;;;;21.84;68.36;96231.25;4989642;28;20623;-68
2023/06/22 00:20:17;;;;;;;11.90;8.10;;;;;;;22.12;67.37;96222.38;4989609;28;20181;-68
2023/06/22 00:22:43;;;;;;;21.80;8.80;;;;;;;22.19;67.00;96220.81;4988957;28;20997;-67
2023/06/22 00:25:09;;;;;;;10.63;9.50;;;;;;;22.14;67.53;96225.75;4988748;28;20467;-68
2023/06/22 00:27:35;;;;;;;7.27;6.57;;;;;;;22.36;66.54;96229.94;4989309;28;20181;-68
2023/06/22 00:30:00;;;;;;;11.07;9.07;;;;;;;22.35;66.31;96222.91;4989660;28;20220;-68
2023/06/22 00:32:26;;;;;;;11.83;9.40;;;;;;;22.31;66.83;96228.69;4990110;28;21030;-68
2023/06/22 00:34:51;;;;;;;10.63;8.70;;;;;;;22.40;66.36;96217.13;4990047;28;20223;-67
2023/06/22 00:37:18;;;;;;;10.50;9.40;;;;;;;22.75;65.03;96226.31;4989362;28;20192;-67
2023/06/22 00:39:44;;;;;;;9.73;6.93;;;;;;;22.70;65.02;96220.53;4989563;28;20181;-68
2023/06/22 00:42:09;;;;;;;13.50;9.60;;;;;;;22.61;65.34;96216.94;4988837;28;20458;-66
2023/06/22 00:44:35;;;;;;;9.57;7.20;;;;;;;22.57;65.37;96213.69;4989123;28;20412;-68
2023/06/22 00:47:02;;;;;;;13.57;11.23;;;;;;;22.47;65.99;96215.56;4989155;28;20200;-68
2023/06/22 00:49:27;;;;;;;13.93;9.73;;;;;;;22.27;66.63;96222.78;4989209;28;20416;-68
2023/06/22 00:51:53;;;;;;;11.03;9.27;;;;;;;21.89;68.17;96219.16;4989053;28;20443;-67
2023/06/22 00:54:24;;;;;;;11.10;8.53;;;;;;;22.20;66.76;96221.63;5020115;28;20664;-69
2023/06/22 00:56:53;;;;;;;13.67;9.70;;;;;;;22.10;67.21;96220.81;4988617;28;20183;-68
2023/06/22 00:59:20;;;;;;;16.57;9.13;;;;;;;21.60;69.01;96215.66;4988878;28;20519;-66
2023/06/22 01:01:45;;;;;;;19.33;9.23;;;;;;;22.05;67.31;96223.91;4988712;28;20981;-68
2023/06/22 01:04:11;;;;;;;12.27;7.83;;;;;;;22.30;66.20;96222.50;4988337;28;20415;-68
2023/06/22 01:06:45;;;;;;;19.97;8.80;;;;;;;22.25;66.34;96235.44;4988220;28;20216;-67
2023/06/22 01:09:26;;;;;;;12.33;9.77;;;;;;;22.25;66.26;96229.25;4988281;28;20451;-68
2023/06/22 01:11:59;;;;;;;11.93;8.43;;;;;;;22.41;65.57;96224.16;4988520;28;20424;-68
2023/06/22 01:14:39;;;;;;;14.73;9.67;;;;;;;22.46;65.43;96229.91;4988158;28;20985;-68
2023/06/22 01:17:08;;;;;;;11.27;10.17;;;;;;;22.07;66.78;96226.47;4988479;28;20404;-68
2023/06/22 01:19:46;;;;;;;11.17;8.20;;;;;;;22.04;66.93;96229.41;4987697;28;20419;-68
2023/06/22 01:22:17;;;;;;;8.40;7.57;;;;;;;22.32;65.96;96225.91;4987977;28;20474;-68
2023/06/22 01:24:57;;;;;;;15.27;9.60;;;;;;;22.19;66.38;96227.97;4987763;28;20603;-66
2023/06/22 01:27:45;;;;;;;8.93;7.03;;;;;;;22.16;66.38;96225.59;4987966;28;20468;-68
2023/06/22 01:30:13;;;;;;;14.77;9.50;;;;;;;21.70;67.93;96221.84;4987864;28;21122;-68
2023/06/22 01:32:40;;;;;;;11.20;7.03;;;;;;;22.10;66.64;96227.00;4987715;28;20447;-67
2023/06/22 01:35:08;;;;;;;10.43;8.43;;;;;;;21.77;67.61;96223.78;4987583;28;20412;-66
2023/06/22 01:37:35;;;;;;;15.53;10.10;;;;;;;21.77;67.62;96218.44;4987492;28;20560;-69
2023/06/22 01:40:05;;;;;;;11.53;8.60;;;;;;;21.86;67.58;96219.44;4987654;28;20463;-68
2023/06/22 01:42:31;;;;;;;12.13;8.63;;;;;;;21.96;67.03;96224.78;4987760;28;20626;-68
2023/06/22 01:44:58;;;;;;;10.13;9.13;;;;;;;21.48;68.71;96228.28;4987426;28;20506;-68
2023/06/22 01:47:24;;;;;;;9.80;7.57;;;;;;;22.19;66.22;96218.13;4987761;28;20426;-66
2023/06/22 01:49:53;;;;;;;12.50;8.47;;;;;;;21.87;67.33;96214.94;4987598;28;20916;-68
2023/06/22 01:52:21;;;;;;;8.67;6.87;;;;;;;21.76;67.83;96221.28;4987801;28;20443;-68
2023/06/22 01:54:46;;;;;;;13.73;9.97;;;;;;;21.46;68.82;96220.41;5019048;28;20956;-68
2023/06/22 01:57:12;;;;;;;12.00;8.20;;;;;;;21.98;66.99;96231.66;4988069;28;20432;-67
2023/06/22 01:59:52;;;;;;;11.60;8.57;;;;;;;21.84;67.53;96226.75;4987534;28;20192;-67
2023/06/22 02:02:20;;;;;;;11.30;9.00;;;;;;;21.69;67.83;96223.66;4987816;28;20188;-67
2023/06/22 02:05:07;;;;;;;12.60;11.13;;;;;;;21.52;68.33;96219.88;4987190;28;20427;-68
2023/06/22 02:07:41;;;;;;;11.97;9.27;;;;;;;21.41;68.61;96238.69;4987207;28;20537;-67
2023/06/22 02:10:08;;;;;;;14.67;7.43;;;;;;;21.83;67.33;96226.88;4987469;28;20482;-67
2023/06/22 02:12:35;;;;;;;15.77;9.93;;;;;;;22.05;66.26;96237.28;4987476;28;20440;-67
2023/06/22 02:15:01;;;;;;;12.10;9.30;;;;;;;22.06;66.14;96230.94;4986920;28;20424;-67
2023/06/22 02:17:27;;;;;;;10.37;8.93;;;;;;;21.81;67.08;96237.72;4987458;28;21075;-67
2023/06/22 02:19:52;;;;;;;12.10;9.70;;;;;;;21.63;67.58;96234.91;4987481;28;20424;-67
2023/06/22 02:22:18;;;;;;;12.80;10.27;;;;;;;21.51;68.32;96238.69;4985905;28;20223;-67
2023/06/22 02:24:43;;;;;;;10.93;8.00;;;;;;;21.70;67.46;96237.84;4993534;28;20173;-67
2023/06/22 02:27:10;;;;;;;10.47;9.00;;;;;;;21.43;68.53;96233.22;4988609;28;20276;-67
2023/06/22 02:29:35;;;;;;;11.73;9.50;;;;;;;21.22;69.35;96228.78;4987659;28;20308;-67
2023/06/22 02:32:01;;;;;;;12.23;9.60;;;;;;;21.03;70.05;96229.56;4986446;28;20436;-67
2023/06/22 02:34:26;;;;;;;9.33;8.07;;;;;;;21.44;68.27;96226.88;4986950;28;20181;-67
2023/06/22 02:36:51;;;;;;;15.83;9.67;;;;;;;21.16;69.38;96221.31;4987162;28;20315;-67
2023/06/22 02:39:24;;;;;;;18.13;9.60;;;;;;;21.31;68.77;96235.97;4986932;28;20199;-69
2023/06/22 02:41:50;;;;;;;12.30;7.80;;;;;;;21.82;66.85;96238.56;4987063;28;20193;-67
2023/06/22 02:44:17;;;;;;;15.77;9.80;;;;;;;21.36;68.85;96239.06;4986753;28;20909;-67
2023/06/22 02:46:43;;;;;;;19.90;10.73;;;;;;;21.25;69.12;96239.16;4986646;28;20478;-66
2023/06/22 02:49:09;;;;;;;17.03;9.70;;;;;;;20.99;69.85;96238.81;4986861;28;20416;-67
2023/06/22 02:51:34;;;;;;;12.67;9.17;;;;;;;20.81;70.88;96243.97;4986702;28;20243;-67
2023/06/22 02:54:00;;;;;;;12.10;8.47;;;;;;;21.01;70.06;96234.19;4986776;28;20408;-67
2023/06/22 02:56:26;;;;;;;15.90;8.93;;;;;;;21.41;68.46;96225.31;4986691;28;20518;-67
2023/06/22 02:58:51;;;;;;;14.07;10.20;;;;;;;21.17;69.08;96239.03;4986766;28;20189;-67
2023/06/22 03:01:23;;;;;;;16.30;9.80;;;;;;;21.41;68.39;96235.16;4986790;28;20191;-68
2023/06/22 03:03:48;;;;;;;15.40;10.20;;;;;;;21.25;68.97;96236.50;4986472;28;20176;-67
2023/06/22 03:06:13;;;;;;;15.97;9.70;;;;;;;21.56;67.41;96236.44;4986544;28;21059;-68
2023/06/22 03:08:39;;;;;;;11.63;9.47;;;;;;;21.96;66.20;96238.97;4986867;28;20177;-67
2023/06/22 03:11:04;;;;;;;13.50;9.30;;;;;;;21.60;67.15;96240.53;4987365;28;20184;-67
2023/06/22 03:13:29;;;;;;;15.17;9.00;;;;;;;21.83;66.49;96234.88;4986417;28;20193;-69
2023/06/22 03:15:55;;;;;;;13.00;7.93;;;;;;;21.92;66.27;96245.59;4986564;28;20275;-68
2023/06/22 03:18:22;;;;;;;12.13;9.60;;;;;;;21.32;68.21;96237.63;4986529;28;20563;-66
2023/06/22 03:20:47;;;;;;;13.57;10.27;;;;;;;20.88;70.01;96239.78;4986725;28;20588;-66
2023/06/22 03:23:13;;;;;;;15.83;8.03;;;;;;;20.96;69.79;96227.59;4986526;28;20489;-67
2023/06/22 03:25:38;;;;;;;13.20;10.70;;;;;;;21.12;68.77;96230.59;4986345;28;20201;-66
2023/06/22 03:28:04;;;;;;;11.60;8.97;;;;;;;20.89;69.48;96220.13;4986816;28;20204;-67
2023/06/22 03:30:29;;;;;;;17.40;10.67;;;;;;;21.06;69.17;96220.44;4986783;28;20242;-66
2023/06/22 03:32:54;;;;;;;17.67;9.57;;;;;;;20.97;69.46;96215.94;4986665;28;20224;-66
2023/06/22 03:35:20;;;;;;;9.60;8.60;;;;;;;20.84;69.98;96214.34;4986582;28;20169;-66
2023/06/22 03:37:45;;;;;;;12.50;9.70;;;;;;;20.80;69.91;96214.75;4986916;28;20268;-66
2023/06/22 03:40:11;;;;;;;16.03;9.50;;;;;;;20.58;70.86;96213.13;4986742;28;20227;-68
2023/06/22 03:42:36;;;;;;;15.37;10.40;;;;;;;20.60;70.99;96225.34;5004694;28;20828;-67
2023/06/22 03:45:03;;;;;;;14.30;10.90;;;;;;;20.32;71.89;96215.38;4970596;28;20419;-69
2023/06/22 03:47:29;;;;;;;11.77;10.47;;;;;;;20.35;71.82;96215.94;4970826;28;20186;-66
2023/06/22 03:49:54;;;;;;;19.57;10.77;;;;;;;20.40;71.82;96210.19;4973232;28;20427;-66
2023/06/22 03:52:21;;;;;;;14.10;10.03;;;;;;;20.31;72.07;96214.50;4988019;28;20212;-67
2023/06/22 03:54:47;;;;;;;12.10;8.87;;;;;;;20.36;71.66;96220.25;4971025;28;20174;-69
2023/06/22 03:57:13;;;;;;;13.03;10.90;;;;;;;20.33;71.92;96219.69;4971164;28;20423;-67
2023/06/22 03:59:38;;;;;;;13.40;9.23;;;;;;;20.35;71.72;96223.91;4981459;28;20181;-67
2023/06/22 04:02:04;;;;;;;11.47;10.20;;;;;;;20.13;72.65;96232.06;4990362;28;20196;-66
2023/06/22 04:04:29;;;;;;;12.77;9.40;;;;;;;20.51;71.04;96226.13;4992438;28;20180;-66
2023/06/22 04:06:55;;;;;;;15.20;10.33;;;;;;;20.48;71.06;96227.22;4990556;28;20526;-67
2023/06/22 04:09:21;;;;;;;11.17;10.03;;;;;;;20.43;71.50;96223.25;4990028;28;20592;-65
2023/06/22 04:11:47;;;;;;;12.27;9.03;;;;;;;20.73;70.33;96222.44;4989862;28;20263;-69
2023/06/22 04:14:12;;;;;;;12.90;7.60;;;;;;;21.06;68.68;96217.78;4989307;28;20478;-68
2023/06/22 04:16:37;;;;;;;11.93;8.83;;;;;;;21.09;68.65;96221.00;4990012;28;20554;-69
2023/06/22 04:19:03;;;;;;;12.53;9.03;;;;;;;20.94;68.97;96215.22;4989836;28;20188;-67
2023/06/22 04:21:28;;;;;;;11.80;10.27;;;;;;;20.58;70.44;96229.13;5020893;28;20185;-66
2023/06/22 04:23:54;;;;;;;11.00;9.90;;;;;;;20.56;70.63;96223.91;4989343;28;20207;-67
2023/06/22 04:26:20;;;;;;;16.07;9.47;;;;;;;20.84;69.58;96226.84;4989569;28;20208;-67
2023/06/22 04:28:51;;;;;;;13.90;9.50;;;;;;;20.73;69.78;96225.09;4989550;28;20201;-66
2023/06/22 04:31:17;;;;;;;13.13;9.93;;;;;;;20.78;69.78;96224.72;4989076;28;20427;-67
2023/06/22 04:33:43;;;;;;;11.13;7.90;;;;;;;20.85;69.20;96212.53;4987943;28;20435;-67
2023/06/22 04:36:08;;;;;;;12.37;8.20;;;;;;;21.14;68.24;96208.13;4985819;28;20448;-68
2023/06/22 04:38:34;;;;;;;11.50;9.23;;;;;;;21.12;68.22;96215.41;4986682;28;20181;-67
2023/06/22 04:41:02;;;;;;;12.60;9.43;;;;;;;21.10;68.34;96213.88;4985469;28;20216;-68
2023/06/22 04:43:30;;;;;;;20.97;9.03;;;;;;;21.07;68.45;96216.78;5013347;28;20522;-67
2023/06/22 04:45:56;;;;;;;17.27;10.70;;;;;;;20.94;68.97;96217.88;4982876;28;20466;-67
2023/06/22 04:48:21;;;;;;;13.10;9.30;;;;;;;20.96;68.93;96217.75;4989036;28;20444;-67
2023/06/22 04:50:47;;;;;;;11.77;9.60;;;;;;;21.00;68.58;96223.66;4981013;28;20501;-67
2023/06/22 04:53:12;;;;;;;12.37;9.40;;;;;;;21.11;68.39;96220.88;4987488;28;20208;-69
2023/06/22 04:55:41;;;;;;;12.13;9.90;;;;;;;20.99;68.95;96212.13;4979552;28;20256;-66
2023/06/22 04:58:07;;;;;;;12.37;9.40;;;;;;;20.91;69.09;96212.84;4986382;28;20616;-65
2023/06/22 05:00:36;;;;;;;14.07;9.13;;;;;;;21.07;68.84;96208.78;4988053;28;20436;-69
2023/06/22 05:03:03;;;;;;;13.60;9.97;;;;;;;21.03;69.02;96212.72;4986265;28;20380;-65
2023/06/22 05:05:28;;;;;;;15.43;10.83;;;;;;;20.86;69.63;96207.06;4983648;28;20459;-67
2023/06/22 05:07:59;;;;;;;15.50;9.90;;;;;;;21.16;69.00;96199.97;4983082;28;20764;-67
2023/06/22 05:10:25;;;;;;;13.17;10.47;;;;;;;21.33;68.28;96193.97;4987885;28;20187;-67
2023/06/22 05:12:50;;;;;;;12.67;8.90;;;;;;;21.31;68.14;96203.94;4985455;28;20463;-67
2023/06/22 05:15:16;;;;;;;16.57;10.47;;;;;;;20.84;69.82;96203.69;4984266;28;20540;-65
2023/06/22 05:17:50;;;;;;;16.60;10.00;;;;;;;20.85;69.82;96197.34;4987941;28;20443;-65
2023/06/22 05:20:17;;;;;;;13.40;10.60;;;;;;;20.82;69.67;96191.47;4978751;28;20179;-66
2023/06/22 05:22:43;;;;;;;11.13;8.90;;;;;;;20.88;69.51;96196.25;4988292;28;20463;-67
2023/06/22 05:25:10;;;;;;;12.80;11.30;;;;;;;20.98;69.61;96194.47;4978417;28;20443;-67
2023/06/22 05:27:43;;;;;;;12.20;8.67;;;;;;;21.44;67.83;96184.16;4984297;28;20250;-67
2023/06/22 05:30:09;;;;;;;12.83;9.80;;;;;;;21.74;66.94;96183.19;4982936;28;20818;-68
2023/06/22 05:32:36;;;;;;;10.90;9.10;;;;;;;21.40;67.77;96180.06;4987306;28;20474;-68
2023/06/22 05:35:02;;;;;;;11.53;8.90;;;;;;;21.36;68.18;96188.34;4976304;28;20586;-67
2023/06/22 05:37:28;;;;;;;16.30;9.97;;;;;;;21.30;68.11;96188.88;4983138;28;20516;-68
2023/06/22 05:39:55;;;;;;;14.40;9.37;;;;;;;21.59;67.22;96185.44;4985372;28;20571;-67
2023/06/22 05:42:21;;;;;;;13.83;9.27;;;;;;;21.42;67.51;96184.28;4982782;28;20216;-66
2023/06/22 05:44:47;;;;;;;16.63;8.73;;;;;;;21.52;67.66;96178.94;4980162;28;20447;-66
2023/06/22 05:47:12;;;;;;;12.87;8.80;;;;;;;21.95;65.84;96177.69;4982451;28;20464;-66
2023/06/22 05:49:38;;;;;;;12.00;9.43;;;;;;;21.75;66.70;96174.16;4985041;28;20196;-66
2023/06/22 05:52:03;;;;;;;12.50;10.10;;;;;;;22.05;65.88;96170.47;4983014;28;20209;-66
2023/06/22 05:54:29;;;;;;;14.63;8.97;;;;;;;21.74;66.76;96188.53;4983938;28;20188;-66
2023/06/22 05:56:54;;;;;;;11.60;9.53;;;;;;;22.18;65.74;96181.72;4984001;28;20682;-68
2023/06/22 05:59:20;;;;;;;13.00;9.80;;;;;;;22.12;65.48;96176.94;4978604;28;20185;-65
2023/06/22 06:01:49;;;;;;;12.33;8.90;;;;;;;21.73;66.45;96173.47;4977076;28;20791;-67
2023/06/22 06:04:15;;;;;;;11.63;8.90;;;;;;;21.74;66.76;96178.69;4980192;28;20298;-63
2023/06/22 06:06:41;;;;;;;13.83;9.40;;;;;;;21.83;66.39;96182.34;4980847;28;20456;-64
2023/06/22 06:09:07;;;;;;;12.80;8.33;;;;;;;21.80;66.34;96184.44;4979636;28;20566;-64
2023/06/22 06:11:33;;;;;;;12.90;8.27;;;;;;;21.99;65.82;96176.38;4977317;28;20691;-67
2023/06/22 06:13:58;;;;;;;11.03;8.53;;;;;;;21.98;65.47;96185.41;4978988;28;20527;-70
2023/06/22 06:16:24;;;;;;;9.97;8.70;;;;;;;21.96;65.62;96177.50;4983968;28;20196;-68
2023/06/22 06:18:54;;;;;;;10.77;8.30;;;;;;;22.58;64.15;96172.59;4984615;28;20188;-71
2023/06/22 06:21:20;;;;;;;15.13;8.50;;;;;;;22.76;63.60;96166.47;4978978;28;20288;-69
2023/06/22 06:23:45;;;;;;;13.60;8.73;;;;;;;22.93;62.56;96160.31;4978486;28;20494;-69
2023/06/22 06:26:10;;;;;;;11.63;8.27;;;;;;;22.96;62.56;96170.72;4977263;28;20202;-69
2023/06/22 06:28:36;;;;;;;11.60;8.23;;;;;;;22.60;63.67;96181.31;4981819;28;20642;-66
2023/06/22 06:31:02;;;;;;;15.30;9.30;;;;;;;22.91;62.91;96183.69;4981346;28;20401;-65
2023/06/22 06:33:27;;;;;;;15.33;8.87;;;;;;;22.74;63.16;96176.47;4980304;28;20201;-69
2023/06/22 06:35:53;;;;;;;12.33;8.47;;;;;;;23.20;62.15;96161.31;4979989;28;20180;-69
2023/06/22 06:38:18;;;;;;;16.73;9.13;;;;;;;23.59;61.05;96161.00;4978245;28;20279;-66
2023/06/22 06:40:45;;;;;;;13.23;9.37;;;;;;;23.35;61.56;96170.50;4982141;28;20188;-69
2023/06/22 06:43:10;;;;;;;16.50;9.40;;;;;;;23.92;60.50;96161.31;4980529;28;20224;-66
2023/06/22 06:45:35;;;;;;;15.60;9.50;;;;;;;23.98;60.12;96152.66;4982330;28;20559;-68
2023/06/22 06:48:01;;;;;;;17.13;9.87;;;;;;;23.75;60.25;96161.19;4979522;28;20184;-67
2023/06/22 06:50:26;;;;;;;21.00;10.07;;;;;;;23.88;59.96;96156.28;4978884;28;20303;-65
2023/06/22 06:52:51;;;;;;;18.53;11.00;;;;;;;23.96;60.13;96157.34;4977792;28;20310;-66
2023/06/22 06:55:19;;;;;;;23.70;9.93;;;;;;;24.28;58.75;96152.19;4976321;28;20242;-71
2023/06/22 06:57:48;;;;;;;14.03;10.43;;;;;;;23.96;59.74;96151.97;4984729;28;20220;-64
2023/06/22 07:00:14;;;;;;;10.80;8.70;;;;;;;24.14;59.20;96142.03;4983103;28;21437;-67
2023/06/22 07:02:44;;;;;;;15.20;9.40;;;;;;;23.97;59.69;96143.75;4983379;28;20464;-65
2023/06/22 07:05:11;;;;;;;17.70;9.23;;;;;;;23.63;60.75;96149.84;4983474;28;20447;-67
2023/06/22 07:07:36;;;;;;;15.47;9.30;;;;;;;24.05;59.99;96149.19;4987879;28;20515;-67
2023/06/22 07:10:03;;;;;;;12.00;9.83;;;;;;;24.49;58.57;96149.13;4986004;28;20512;-70
2023/06/22 07:12:28;;;;;;;17.83;8.93;;;;;;;24.67;57.89;96143.69;4984030;28;20206;-67
2023/06/22 07:14:54;;;;;;;13.50;9.30;;;;;;;24.88;57.08;96140.59;4985135;28;20503;-70
2023/06/22 07:17:19;;;;;;;16.97;8.80;;;;;;;24.37;58.60;96128.91;4984913;28;20226;-66
2023/06/22 07:19:45;;;;;;;19.67;9.73;;;;;;;24.55;58.07;96128.06;4991085;28;20251;-66
2023/06/22 07:22:11;;;;;;;21.70;11.93;;;;;;;24.79;57.88;96133.50;4989657;28;20212;-67
2023/06/22 07:24:37;;;;;;;12.37;9.53;;;;;;;25.00;56.71;96133.06;4986662;28;20212;-68
2023/06/22 07:27:03;;;;;;;11.50;8.93;;;;;;;25.09;56.31;96133.94;4984780;28;20223;-68
2023/06/22 07:29:29;;;;;;;15.47;10.80;;;;;;;24.93;56.85;96127.50;4983709;28;20445;-66
2023/06/22 07:31:56;;;;;;;12.87;8.90;;;;;;;25.47;55.65;96119.09;4987882;28;20462;-68
2023/06/22 07:34:21;;;;;;;12.33;9.47;;;;;;;24.95;56.89;96122.00;4986962;28;20181;-66
2023/06/22 07:36:47;;;;;;;17.40;10.60;;;;;;;25.33;55.58;96123.28;4988553;28;20530;-66
2023/06/22 07:39:12;;;;;;;14.47;9.90;;;;;;;25.75;54.78;96108.84;4982284;28;20284;-69
2023/06/22 07:41:40;;;;;;;13.43;8.97;;;;;;;26.03;53.99;96121.13;4990131;28;20528;-68
2023/06/22 07:44:06;;;;;;;15.63;9.20;;;;;;;25.72;53.98;96119.09;4991933;28;20207;-69
2023/06/22 07:46:32;;;;;;;18.23;9.87;;;;;;;25.42;54.42;96128.63;5001180;28;20467;-67
2023/06/22 07:48:58;;;;;;;17.30;8.23;;;;;;;25.75;53.86;96124.16;4998751;28;20197;-69
2023/06/22 07:51:23;;;;;;;14.87;9.03;;;;;;;25.63;53.97;96133.53;5002102;28;20180;-69
2023/06/22 07:53:49;;;;;;;14.73;10.00;;;;;;;25.35;54.74;96123.94;4995274;28;20185;-68
2023/06/22 07:56:18;;;;;;;12.90;9.13;;;;;;;25.65;54.21;96123.47;4983368;28;20724;-68
2023/06/22 07:58:44;;;;;;;17.23;9.60;;;;;;;25.63;54.45;96117.41;4987445;28;20184;-69
2023/06/22 08:01:10;;;;;;;15.63;9.07;;;;;;;25.61;55.09;96117.59;4985155;28;20450;-70
2023/06/22 08:03:35;;;;;;;15.80;8.70;;;;;;;25.55;54.18;96127.16;4982922;28;20202;-68
2023/06/22 08:06:01;;;;;;;15.33;10.27;;;;;;;25.33;54.74;96114.38;4987518;28;20279;-69
2023/06/22 08:08:26;;;;;;;10.37;8.53;;;;;;;25.38;55.27;96116.56;4989493;28;20199;-67
2023/06/22 08:10:52;;;;;;;12.60;9.40;;;;;;;25.53;54.37;96118.41;4988380;28;20288;-68
2023/06/22 08:13:17;;;;;;;11.07;9.90;;;;;;;25.71;54.21;96114.72;5015402;28;20263;-70
2023/06/22 08:15:42;;;;;;;19.33;10.93;;;;;;;25.58;54.61;96115.22;4987921;28;20220;-68
2023/06/22 08:18:08;;;;;;;18.07;12.30;;;;;;;25.61;54.54;96109.53;4985547;28;20376;-68
2023/06/22 08:20:33;;;;;;;12.07;9.50;;;;;;;25.91;54.39;96108.00;4985919;28;20185;-68
2023/06/22 08:23:05;;;;;;;18.30;10.00;;;;;;;26.00;53.31;96108.84;4988010;28;20238;-66
2023/06/22 08:25:30;;;;;;;19.13;9.70;;;;;;;26.18;53.70;96104.13;4980878;28;20197;-69
2023/06/22 08:27:56;;;;;;;19.80;9.80;;;;;;;26.02;53.23;96090.69;4986827;28;20440;-68
2023/06/22 08:30:21;;;;;;;20.40;10.47;;;;;;;26.48;52.47;96096.31;4977658;28;20646;-68
2023/06/22 08:32:46;;;;;;;18.40;11.63;;;;;;;26.69;52.20;96090.34;4980255;28;20341;-70
2023/06/22 08:35:12;;;;;;;20.63;11.80;;;;;;;26.27;53.31;96107.63;4986182;28;20192;-70
2023/06/22 08:37:38;;;;;;;12.93;9.83;;;;;;;26.42;53.31;96086.22;4987370;28;20669;-69
2023/06/22 08:40:08;;;;;;;11.27;9.87;;;;;;;26.41;52.94;96089.94;4985771;28;20196;-71
2023/06/22 08:42:34;;;;;;;11.43;9.47;;;;;;;25.94;54.67;96085.34;4982901;28;20550;-70
2023/06/22 08:44:59;;;;;;;13.07;10.63;;;;;;;26.20;53.69;96093.19;4978947;28;20511;-68
2023/06/22 08:47:25;;;;;;;23.07;12.60;;;;;;;26.52;53.03;96091.41;4985652;28;20670;-67
2023/06/22 08:49:50;;;;;;;16.10;11.80;;;;;;;26.79;52.66;96090.16;4984958;28;20196;-69
2023/06/22 08:52:17;;;;;;;11.13;9.50;;;;;;;26.07;53.90;96095.56;4985295;28;20207;-68
2023/06/22 08:54:43;;;;;;;14.03;10.87;;;;;;;26.02;54.23;96093.38;4985637;28;20897;-70
2023/06/22 08:57:08;;;;;;;16.50;10.67;;;;;;;26.43;52.29;96089.75;4987366;28;20455;-68
2023/06/22 08:59:33;;;;;;;15.37;10.30;;;;;;;26.78;51.70;96086.59;4987603;28;20189;-69
2023/06/22 09:01:59;;;;;;;11.80;10.30;;;;;;;27.20;51.37;96084.53;4984261;28;20200;-70
2023/06/22 09:04:24;;;;;;;10.77;9.67;;;;;;;26.98;51.58;96083.50;4982302;28;20185;-69
2023/06/22 09:06:52;;;;;;;15.57;9.90;;;;;;;27.18;51.27;96090.06;4985931;28;20204;-67
2023/06/22 09:09:18;;;;;;;12.83;8.43;;;;;;;27.49;50.52;96078.44;4980898;28;20181;-68
2023/06/22 09:11:44;;;;;;;20.43;9.90;;;;;;;27.47;51.04;96080.47;4987053;28;20502;-68
2023/06/22 09:14:10;;;;;;;27.13;11.17;;;;;;;27.55;50.26;96077.72;4984919;28;20917;-68
2023/06/22 09:16:36;;;;;;;22.93;10.73;;;;;;;27.52;50.71;96086.19;4989561;28;20169;-70
2023/06/22 09:19:01;;;;;;;19.77;11.97;;;;;;;27.49;50.43;96091.91;4988789;28;20444;-69
2023/06/22 09:21:27;;;;;;;53.27;14.20;;;;;;;27.93;49.41;96083.16;4988275;28;20184;-69
2023/06/22 09:23:52;;;;;;;15.93;9.53;;;;;;;27.91;49.58;96095.13;4984201;28;20199;-68
2023/06/22 09:26:18;;;;;;;17.57;9.83;;;;;;;27.74;50.33;96091.72;4985159;28;20188;-68
2023/06/22 09:28:44;;;;;;;19.07;9.70;;;;;;;27.86;49.53;96088.44;4986733;28;20200;-69
2023/06/22 09:31:09;;;;;;;28.70;11.43;;;;;;;28.03;48.98;96088.28;4980443;28;20460;-68
2023/06/22 09:33:39;;;;;;;27.90;11.53;;;;;;;28.00;48.90;96105.66;4981841;28;20212;-68
2023/06/22 09:36:07;;;;;;;30.83;12.23;;;;;;;28.70;46.87;96101.72;4985244;28;20183;-69
2023/06/22 09:38:35;;;;;;;25.17;12.23;;;;;;;29.10;45.33;96121.16;4981906;28;20462;-71
2023/06/22 09:41:00;;;;;;;20.53;10.60;;;;;;;29.09;45.88;96129.44;4982829;28;20505;-69
2023/06/22 09:43:27;;;;;;;26.73;11.00;;;;;;;29.55;44.62;96131.81;4981189;28;20455;-70
2023/06/22 09:45:52;;;;;;;15.83;10.30;;;;;;;29.71;44.29;96122.63;4980419;28;20847;-70
2023/06/22 09:48:17;;;;;;;15.77;9.37;;;;;;;29.75;44.63;96110.41;4985418;28;20435;-70
2023/06/22 09:50:43;;;;;;;13.40;10.50;;;;;;;29.56;44.70;96117.28;4984869;28;20192;-69
2023/06/22 09:53:08;;;;;;;14.23;10.13;;;;;;;29.48;44.96;96109.28;4987458;28;20627;-70
2023/06/22 09:55:33;;;;;;;29.20;11.80;;;;;;;29.64;44.24;96113.59;4982302;28;20204;-67
2023/06/22 09:57:59;;;;;;;27.13;11.83;;;;;;;29.87;43.60;96105.31;4985331;28;20551;-68
2023/06/22 10:00:26;;;;;;;25.47;9.50;;;;;;;29.89;42.32;96100.53;4986380;28;20183;-69
2023/06/22 10:02:52;;;;;;;19.53;8.70;;;;;;;29.79;42.64;96094.63;4985261;28;20308;-67
2023/06/22 10:05:17;;;;;;;25.77;11.20;;;;;;;29.92;42.45;96105.56;4984928;28;20554;-70
2023/06/22 10:07:43;;;;;;;45.80;12.10;;;;;;;29.97;42.90;96106.63;4987482;28;20184;-68
2023/06/22 10:10:10;;;;;;;16.23;9.97;;;;;;;29.84;43.38;96109.25;4988070;28;20176;-67
2023/06/22 10:12:35;;;;;;;18.80;9.50;;;;;;;30.09;42.06;96112.34;4988440;28;20510;-69
2023/06/22 10:15:01;;;;;;;14.23;9.60;;;;;;;30.03;42.38;96104.19;4987210;28;20427;-69
2023/06/22 10:17:26;;;;;;;10.00;9.00;;;;;;;29.79;43.41;96097.31;4985972;28;20270;-68
2023/06/22 10:19:52;;;;;;;16.30;8.30;;;;;;;29.99;43.16;96090.22;4985753;28;20488;-67
2023/06/22 10:22:17;;;;;;;25.77;9.43;;;;;;;30.10;42.46;96088.84;4980734;28;20643;-69
2023/06/22 10:24:44;;;;;;;26.60;9.87;;;;;;;30.20;41.94;96077.66;4981220;28;20184;-68
2023/06/22 10:27:13;;;;;;;23.50;9.97;;;;;;;30.32;41.28;96076.09;4986646;28;20543;-68
2023/06/22 10:29:39;;;;;;;13.43;8.67;;;;;;;30.17;41.95;96070.78;4984188;28;20438;-68
2023/06/22 10:32:05;;;;;;;16.83;8.87;;;;;;;30.30;41.33;96064.63;4983901;28;20956;-68
2023/06/22 10:34:30;;;;;;;30.57;11.00;;;;;;;30.36;41.58;96064.69;4982754;28;20184;-68
2023/06/22 10:36:56;;;;;;;21.40;10.03;;;;;;;30.33;41.72;96064.22;4980468;28;20426;-68
2023/06/22 10:39:21;;;;;;;31.60;9.47;;;;;;;30.35;41.17;96068.41;4981746;28;20173;-68
2023/06/22 10:41:46;;;;;;;20.90;9.30;;;;;;;30.23;41.18;96061.03;4982234;28;20319;-68
2023/06/22 10:44:13;;;;;;;33.20;10.83;;;;;;;30.06;40.76;96058.63;4983704;28;20648;-67
2023/06/22 10:46:39;;;;;;;16.37;8.87;;;;;;;29.73;41.88;96059.22;4986041;28;20234;-68
2023/06/22 10:49:04;;;;;;;37.60;11.07;;;;;;;29.90;42.27;96058.91;4986065;28;20419;-67
2023/06/22 10:51:31;;;;;;;30.50;9.70;;;;;;;29.93;41.60;96050.41;4984649;28;20187;-70
2023/06/22 10:53:56;;;;;;;59.50;14.77;;;;;;;29.99;41.74;96052.31;4985414;28;20182;-67
2023/06/22 10:56:22;;;;;;;22.93;10.70;;;;;;;29.50;42.30;96026.94;4995028;28;20854;-68
2023/06/22 10:58:47;;;;;;;18.43;9.03;;;;;;;29.32;43.54;96023.88;4997105;28;20187;-67
2023/06/22 11:01:13;;;;;;;29.47;10.60;;;;;;;29.30;43.83;96028.66;4996572;28;20179;-67
2023/06/22 11:03:38;;;;;;;21.90;9.40;;;;;;;29.33;42.98;96042.59;4988151;28;20211;-68
2023/06/22 11:06:03;;;;;;;19.60;8.43;;;;;;;29.45;43.29;96042.91;4990455;28;20248;-68
2023/06/22 11:08:29;;;;;;;25.73;9.63;;;;;;;29.24;44.67;96042.91;4991761;28;20180;-68
2023/06/22 11:10:54;;;;;;;17.13;9.13;;;;;;;29.50;43.55;96045.03;4992188;28;20711;-68
2023/06/22 11:13:20;;;;;;;15.07;9.17;;;;;;;29.48;44.02;96033.56;4990829;28;20210;-67
2023/06/22 11:15:45;;;;;;;15.47;8.40;;;;;;;29.60;43.07;96042.84;4989685;28;20184;-68
2023/06/22 11:18:10;;;;;;;26.27;9.77;;;;;;;29.67;43.08;96032.97;4986486;28;20637;-68
2023/06/22 11:20:38;;;;;;;11.10;8.53;;;;;;;29.37;43.69;96043.06;4992994;28;20195;-69